Time;durP1;ratioP1;P1;durP2;ratioP2;P2;SDS_P1;SDS_P2;PMS_P1;PMS_P2;Temp;Humidity;BMP_temperature;BMP_pressure;BME280_temperature;BME280_humidity;BME280_pressure;Samples;Min_cycle;Max_cycle;Signal;HPM_P1;HPM_P2
2021/06/25 00:00:08;;;;;;;2.80;1.77;;;15.00;99.90;;;;;;5091495;28;20533;-88
2021/06/25 00:02:34;;;;;;;2.63;1.87;;;15.00;99.90;;;;;;5090152;28;20701;-88
2021/06/25 00:05:00;;;;;;;5.80;1.73;;;15.00;99.90;;;;;;5091130;28;20422;-89
2021/06/25 00:07:26;;;;;;;5.77;3.23;;;15.00;99.90;;;;;;5092362;28;20164;-88
2021/06/25 00:09:51;;;;;;;3.23;1.83;;;15.10;99.90;;;;;;5092282;28;20826;-88
2021/06/25 00:12:17;;;;;;;3.03;1.27;;;15.00;99.90;;;;;;5092193;28;20598;-89
2021/06/25 00:14:42;;;;;;;5.90;1.80;;;14.90;99.90;;;;;;5092087;28;20208;-88
2021/06/25 00:17:08;;;;;;;4.43;1.77;;;14.90;99.90;;;;;;5092111;28;20172;-88
2021/06/25 00:19:34;;;;;;;3.80;1.90;;;14.80;99.90;;;;;;5092272;28;20172;-88
2021/06/25 00:22:00;;;;;;;5.43;1.57;;;14.80;99.90;;;;;;5091084;28;20173;-88
2021/06/25 00:24:25;;;;;;;5.20;2.63;;;14.80;99.90;;;;;;5091104;28;20422;-88
2021/06/25 00:26:51;;;;;;;4.43;2.03;;;14.80;99.90;;;;;;5091899;28;20172;-88
2021/06/25 00:29:18;;;;;;;4.63;1.80;;;14.70;99.90;;;;;;5103696;28;20530;-88
2021/06/25 00:31:44;;;;;;;3.40;1.33;;;14.70;99.90;;;;;;5092906;28;20226;-89
2021/06/25 00:34:09;;;;;;;2.40;1.33;;;14.70;99.90;;;;;;5092303;28;20979;-89
2021/06/25 00:36:35;;;;;;;2.50;1.10;;;14.70;99.90;;;;;;5095490;28;20224;-90
2021/06/25 00:39:01;;;;;;;4.83;1.30;;;14.80;99.90;;;;;;5095820;28;20530;-89
2021/06/25 00:41:26;;;;;;;5.33;2.03;;;14.70;99.90;;;;;;5097379;28;20671;-91
2021/06/25 00:43:52;;;;;;;3.20;1.33;;;14.70;99.90;;;;;;5097162;28;20209;-89
2021/06/25 00:46:19;;;;;;;3.33;2.27;;;14.80;99.90;;;;;;5096512;28;20197;-88
2021/06/25 00:48:44;;;;;;;4.47;2.00;;;14.80;99.90;;;;;;5094824;28;20217;-89
2021/06/25 00:51:10;;;;;;;5.53;1.73;;;14.80;99.90;;;;;;5096413;28;20493;-91
2021/06/25 00:53:36;;;;;;;2.60;1.73;;;14.70;99.90;;;;;;5096614;28;20211;-90
2021/06/25 00:56:01;;;;;;;3.60;2.00;;;14.70;99.90;;;;;;5096777;28;20185;-92
2021/06/25 00:58:27;;;;;;;5.20;2.60;;;14.70;99.90;;;;;;5096890;28;20519;-91
2021/06/25 01:00:52;;;;;;;4.80;2.23;;;14.70;99.90;;;;;;5096867;28;20643;-91
2021/06/25 01:03:18;;;;;;;5.13;2.07;;;14.70;99.90;;;;;;5096677;28;20226;-92
2021/06/25 01:05:44;;;;;;;3.97;2.40;;;14.70;99.90;;;;;;5095502;28;20176;-91
2021/06/25 01:08:10;;;;;;;4.03;2.07;;;14.70;99.90;;;;;;5096518;28;20626;-91
2021/06/25 01:10:38;;;;;;;3.43;1.80;;;14.60;99.90;;;;;;5095238;28;20498;-89
2021/06/25 01:13:08;;;;;;;4.23;2.70;;;14.50;99.90;;;;;;5096257;28;20486;-91
2021/06/25 01:15:34;;;;;;;6.90;2.90;;;14.50;99.90;;;;;;5095394;28;20924;-93
2021/06/25 01:18:00;;;;;;;4.37;2.53;;;14.50;99.90;;;;;;5096309;28;20455;-92
2021/06/25 01:20:30;;;;;;;3.07;2.70;;;14.50;99.90;;;;;;5096378;28;20454;-92
2021/06/25 01:22:58;;;;;;;2.80;1.80;;;14.40;99.90;;;;;;5096727;28;20219;-92
2021/06/25 01:25:35;;;;;;;4.13;2.50;;;14.30;99.90;;;;;;5096145;28;20419;-92
2021/06/25 01:28:04;;;;;;;4.80;3.17;;;14.30;99.90;;;;;;5096344;28;20443;-92
2021/06/25 01:30:36;;;;;;;5.60;3.00;;;14.20;99.90;;;;;;5095988;28;20427;-91
2021/06/25 01:33:05;;;;;;;5.23;2.63;;;14.30;99.90;;;;;;5094386;28;20477;-93
2021/06/25 01:35:30;;;;;;;4.37;3.30;;;14.30;99.90;;;;;;5095179;28;20429;-90
2021/06/25 01:37:56;;;;;;;4.83;3.17;;;14.30;99.90;;;;;;5095195;28;20780;-91
2021/06/25 01:40:23;;;;;;;6.20;3.80;;;14.30;99.90;;;;;;5096057;28;20178;-90
2021/06/25 01:42:49;;;;;;;6.53;4.30;;;14.20;99.90;;;;;;5095062;28;20171;-93
2021/06/25 01:45:23;;;;;;;6.27;4.73;;;14.30;99.90;;;;;;5094621;28;20459;-92
2021/06/25 01:47:51;;;;;;;6.07;4.70;;;14.20;99.90;;;;;;5094415;28;20467;-92
2021/06/25 01:50:18;;;;;;;7.33;4.50;;;14.20;99.90;;;;;;5094572;28;20502;-92
2021/06/25 01:52:46;;;;;;;5.63;4.37;;;14.30;99.90;;;;;;5094204;28;20457;-92
2021/06/25 01:55:11;;;;;;;6.70;4.43;;;14.20;99.90;;;;;;5094415;28;20414;-92
2021/06/25 01:57:37;;;;;;;5.03;3.70;;;14.20;99.90;;;;;;5100598;28;20419;-92
2021/06/25 02:00:04;;;;;;;6.13;4.80;;;14.20;99.90;;;;;;5130987;27;20472;-94
2021/06/25 02:02:30;;;;;;;7.47;5.20;;;14.30;99.90;;;;;;5115775;28;20179;-93
2021/06/25 02:04:56;;;;;;;7.57;5.00;;;14.20;99.90;;;;;;5116127;28;20412;-92
2021/06/25 02:07:22;;;;;;;9.57;5.43;;;14.30;99.90;;;;;;5116033;28;20408;-92
2021/06/25 02:09:47;;;;;;;5.93;5.10;;;14.30;99.90;;;;;;5114818;28;20174;-92
2021/06/25 02:12:13;;;;;;;6.33;4.57;;;14.20;99.90;;;;;;5116052;28;20244;-92
2021/06/25 02:14:39;;;;;;;8.70;5.23;;;14.20;99.90;;;;;;5116214;28;20166;-92
2021/06/25 02:17:04;;;;;;;8.63;5.40;;;14.20;99.90;;;;;;5114194;28;20174;-92
2021/06/25 02:19:30;;;;;;;9.13;6.23;;;14.20;99.90;;;;;;5115542;28;20202;-93
2021/06/25 02:21:56;;;;;;;6.10;4.90;;;14.10;99.90;;;;;;5115734;28;20201;-91
2021/06/25 02:24:21;;;;;;;6.57;5.60;;;14.10;99.90;;;;;;5114088;28;20222;-90
2021/06/25 02:26:47;;;;;;;8.10;5.80;;;14.00;99.90;;;;;;5114230;28;20172;-91
2021/06/25 02:29:13;;;;;;;7.50;5.43;;;13.90;99.90;;;;;;5114326;28;20170;-90
2021/06/25 02:31:38;;;;;;;9.93;6.20;;;13.80;99.90;;;;;;5115006;28;20219;-90
2021/06/25 02:34:04;;;;;;;8.50;5.43;;;13.80;99.90;;;;;;5114063;28;20263;-90
2021/06/25 02:36:29;;;;;;;7.40;5.23;;;13.60;99.90;;;;;;5114003;28;20659;-92
2021/06/25 02:38:55;;;;;;;10.27;6.47;;;13.50;99.90;;;;;;5114494;28;20175;-91
2021/06/25 02:41:21;;;;;;;8.17;5.90;;;13.40;99.90;;;;;;5113967;28;20170;-91
2021/06/25 02:43:48;;;;;;;9.93;5.77;;;13.30;99.90;;;;;;5113993;28;20244;-91
2021/06/25 02:46:14;;;;;;;7.50;5.53;;;13.20;99.90;;;;;;5113982;28;20230;-90
2021/06/25 02:48:39;;;;;;;9.40;5.77;;;13.10;99.90;;;;;;5114727;28;20796;-90
2021/06/25 02:51:05;;;;;;;9.37;6.07;;;13.00;99.90;;;;;;5114026;28;20417;-90
2021/06/25 02:53:31;;;;;;;8.63;6.00;;;12.90;99.90;;;;;;5114899;28;20252;-90
2021/06/25 02:55:56;;;;;;;10.63;7.30;;;12.80;99.90;;;;;;5113934;28;20166;-90
2021/06/25 02:58:25;;;;;;;7.23;5.53;;;12.80;99.90;;;;;;5112987;28;20226;-90
2021/06/25 03:00:52;;;;;;;9.03;6.43;;;12.80;99.90;;;;;;5115060;28;20254;-91
2021/06/25 03:03:18;;;;;;;9.93;7.03;;;12.70;99.90;;;;;;5113082;28;20457;-91
2021/06/25 03:05:44;;;;;;;8.50;6.37;;;12.70;99.90;;;;;;5114261;28;20412;-91
2021/06/25 03:08:09;;;;;;;11.80;7.60;;;12.70;99.90;;;;;;5113441;28;20420;-90
2021/06/25 03:10:35;;;;;;;8.00;6.50;;;12.60;99.90;;;;;;5113135;28;20184;-91
2021/06/25 03:13:01;;;;;;;7.90;6.00;;;12.60;99.90;;;;;;5113003;28;20769;-90
2021/06/25 03:15:26;;;;;;;10.60;7.00;;;12.60;99.90;;;;;;5112956;28;20201;-90
2021/06/25 03:17:52;;;;;;;8.50;6.67;;;12.60;99.90;;;;;;5113804;28;20780;-91
2021/06/25 03:20:18;;;;;;;9.40;7.60;;;12.60;99.90;;;;;;5114117;28;20165;-91
2021/06/25 03:22:44;;;;;;;10.37;7.20;;;12.60;99.90;;;;;;5114156;28;20507;-91
2021/06/25 03:25:10;;;;;;;11.83;7.47;;;12.50;99.90;;;;;;5114187;28;20172;-91
2021/06/25 03:27:37;;;;;;;10.60;8.33;;;12.50;99.90;;;;;;5117779;28;20164;-86
2021/06/25 03:30:04;;;;;;;9.60;7.03;;;12.60;99.90;;;;;;5130572;28;20408;-93
2021/06/25 03:32:30;;;;;;;10.00;7.53;;;12.60;99.90;;;;;;5114068;28;20829;-93
2021/06/25 03:34:56;;;;;;;9.87;7.60;;;12.60;99.90;;;;;;5113276;28;20426;-93
2021/06/25 03:37:21;;;;;;;10.53;7.60;;;12.60;99.90;;;;;;5114104;28;20165;-93
2021/06/25 03:39:47;;;;;;;12.70;7.40;;;12.60;99.90;;;;;;5112874;28;20188;-91
2021/06/25 03:42:12;;;;;;;9.33;7.83;;;12.60;99.90;;;;;;5113144;28;20259;-88
2021/06/25 03:44:38;;;;;;;11.50;7.10;;;12.60;99.90;;;;;;5113716;28;20173;-90
2021/06/25 03:47:04;;;;;;;12.07;7.83;;;12.60;99.90;;;;;;5113595;28;20213;-91
2021/06/25 03:49:30;;;;;;;13.57;10.33;;;12.70;99.90;;;;;;5112528;28;20211;-91
2021/06/25 03:51:55;;;;;;;9.67;8.50;;;12.70;99.90;;;;;;5113602;28;20167;-91
2021/06/25 03:54:21;;;;;;;9.50;7.60;;;12.70;99.90;;;;;;5112674;28;20218;-92
2021/06/25 03:56:47;;;;;;;13.33;8.20;;;12.60;99.90;;;;;;5112716;28;20229;-92
2021/06/25 03:59:12;;;;;;;11.20;6.40;;;12.60;99.90;;;;;;5112759;28;20621;-94
2021/06/25 04:01:38;;;;;;;13.30;8.87;;;12.60;99.90;;;;;;5095426;28;20175;-91
2021/06/25 04:04:04;;;;;;;11.70;7.30;;;12.70;99.90;;;;;;5113902;28;20697;-92
2021/06/25 04:06:29;;;;;;;14.60;8.20;;;12.70;99.90;;;;;;5113862;28;20168;-91
2021/06/25 04:08:55;;;;;;;11.20;8.63;;;12.70;99.90;;;;;;5115546;28;20172;-90
2021/06/25 04:11:21;;;;;;;9.07;7.57;;;12.60;99.90;;;;;;5115920;28;20187;-91
2021/06/25 04:13:47;;;;;;;9.53;7.47;;;12.70;99.90;;;;;;5115105;28;20333;-87
2021/06/25 04:16:13;;;;;;;15.43;9.67;;;12.80;99.90;;;;;;5114964;28;20221;-86
2021/06/25 04:18:39;;;;;;;14.13;9.33;;;13.00;99.90;;;;;;5102373;28;20442;-87
2021/06/25 04:21:05;;;;;;;11.73;9.00;;;13.20;99.90;;;;;;5096008;28;20426;-86
2021/06/25 04:23:31;;;;;;;13.03;9.00;;;13.20;99.90;;;;;;5102104;28;20185;-86
2021/06/25 04:25:56;;;;;;;12.67;9.50;;;13.20;99.90;;;;;;5115019;28;20938;-87
2021/06/25 04:28:23;;;;;;;9.90;7.23;;;13.20;99.90;;;;;;5116952;28;20180;-87
2021/06/25 04:30:49;;;;;;;14.47;9.07;;;13.20;99.90;;;;;;5120271;27;20555;-88
2021/06/25 04:33:15;;;;;;;12.17;8.97;;;13.20;99.90;;;;;;5132424;27;20497;-84
2021/06/25 04:35:42;;;;;;;11.07;8.63;;;13.20;99.90;;;;;;5119394;27;20411;-87
2021/06/25 04:38:08;;;;;;;11.07;8.90;;;13.40;99.90;;;;;;5117012;28;20174;-87
2021/06/25 04:40:37;;;;;;;10.97;7.90;;;13.40;99.90;;;;;;5116840;28;20431;-80
2021/06/25 04:43:05;;;;;;;11.83;6.97;;;13.50;99.90;;;;;;5116594;28;20454;-79
2021/06/25 04:45:30;;;;;;;10.57;8.27;;;13.60;99.90;;;;;;5116354;28;20410;-80
2021/06/25 04:47:56;;;;;;;9.47;7.67;;;13.70;99.90;;;;;;5116101;28;20415;-80
2021/06/25 04:50:22;;;;;;;11.53;6.93;;;13.80;99.90;;;;;;5116294;28;20247;-80
2021/06/25 04:52:47;;;;;;;9.67;8.03;;;13.80;99.90;;;;;;5116230;28;20234;-79
2021/06/25 04:55:13;;;;;;;9.07;6.77;;;13.90;99.90;;;;;;5116251;28;20180;-80
2021/06/25 04:57:39;;;;;;;11.60;7.70;;;14.00;99.90;;;;;;5117173;28;20205;-79
2021/06/25 05:00:08;;;;;;;10.63;7.07;;;14.70;99.90;;;;;;5103664;28;20662;-80
2021/06/25 05:02:33;;;;;;;12.10;7.03;;;14.40;99.90;;;;;;5114513;28;21049;-80
2021/06/25 05:04:59;;;;;;;7.80;6.97;;;14.30;99.90;;;;;;5114135;28;20494;-80
2021/06/25 05:07:24;;;;;;;9.40;6.50;;;14.30;99.90;;;;;;5116009;28;20614;-80
2021/06/25 05:09:50;;;;;;;7.40;6.33;;;14.30;99.90;;;;;;5116099;28;20517;-79
2021/06/25 05:12:15;;;;;;;12.33;7.40;;;14.30;99.90;;;;;;5115746;28;20221;-79
2021/06/25 05:14:41;;;;;;;9.30;6.53;;;14.30;99.90;;;;;;5114804;28;20525;-79
2021/06/25 05:17:06;;;;;;;11.23;7.60;;;14.40;99.90;;;;;;5115543;28;20230;-80
2021/06/25 05:19:33;;;;;;;12.33;9.17;;;14.50;99.90;;;;;;5115285;28;20532;-79
2021/06/25 05:21:58;;;;;;;9.53;6.83;;;14.70;99.90;;;;;;5115619;28;20168;-80
2021/06/25 05:24:24;;;;;;;10.00;7.40;;;14.90;99.90;;;;;;5115753;28;20414;-80
2021/06/25 05:26:50;;;;;;;9.33;7.90;;;14.90;99.90;;;;;;5114573;28;20222;-80
2021/06/25 05:29:16;;;;;;;11.60;7.10;;;15.10;99.90;;;;;;5114452;28;20645;-80
2021/06/25 05:31:41;;;;;;;9.40;6.80;;;15.20;99.90;;;;;;5115103;28;20175;-80
2021/06/25 05:34:07;;;;;;;11.23;7.67;;;15.40;99.90;;;;;;5115532;28;20666;-80
2021/06/25 05:36:32;;;;;;;9.03;7.07;;;15.70;99.90;;;;;;5115560;28;20172;-80
2021/06/25 05:38:58;;;;;;;9.47;7.27;;;15.80;99.90;;;;;;5115539;28;20179;-80
2021/06/25 05:41:24;;;;;;;9.67;6.70;;;16.00;99.90;;;;;;5115505;28;20204;-80
2021/06/25 05:43:50;;;;;;;10.60;7.50;;;16.10;99.90;;;;;;5115366;28;20533;-80
2021/06/25 05:46:15;;;;;;;9.93;8.93;;;15.90;99.90;;;;;;5115002;28;20851;-80
2021/06/25 05:48:41;;;;;;;8.10;6.70;;;16.30;99.90;;;;;;5115240;28;20410;-80
2021/06/25 05:51:07;;;;;;;9.07;6.60;;;16.40;99.90;;;;;;5115244;27;20165;-85
2021/06/25 05:53:33;;;;;;;11.43;7.27;;;16.30;99.90;;;;;;5113644;28;20204;-80
2021/06/25 05:55:59;;;;;;;9.00;7.23;;;16.00;99.90;;;;;;5114800;28;20431;-80
2021/06/25 05:58:25;;;;;;;9.80;7.80;;;15.70;99.90;;;;;;5113699;28;21002;-80
2021/06/25 06:00:51;;;;;;;10.90;7.80;;;15.50;99.90;;;;;;5111700;28;20163;-86
2021/06/25 06:03:16;;;;;;;11.83;8.73;;;15.50;99.90;;;;;;5113233;28;20773;-82
2021/06/25 06:05:42;;;;;;;8.57;7.63;;;15.60;99.90;;;;;;5114669;27;20160;-83
2021/06/25 06:08:08;;;;;;;13.80;9.63;;;15.70;99.90;;;;;;5114345;28;20211;-91
2021/06/25 06:10:38;;;;;;;12.23;8.43;;;15.70;99.90;;;;;;5116295;28;20403;-89
2021/06/25 06:13:04;;;;;;;11.00;8.77;;;16.10;99.90;;;;;;5115120;28;20474;-80
2021/06/25 06:15:30;;;;;;;9.47;8.20;;;16.30;99.90;;;;;;5114237;28;20927;-80
2021/06/25 06:17:58;;;;;;;11.50;7.90;;;16.50;99.90;;;;;;5114520;28;20411;-82
2021/06/25 06:20:26;;;;;;;11.20;8.10;;;16.80;99.90;;;;;;5115002;28;20483;-81
2021/06/25 06:31:19;;;;;;;10.17;7.90;;;17.30;35.90;;;;;;5113653;28;20930;-82
2021/06/25 06:33:54;;;;;;;9.87;7.30;;;17.30;26.60;;;;;;5112889;28;20987;-80
2021/06/25 06:38:51;;;;;;;9.87;8.10;;;18.00;3.90;;;;;;5114324;28;20406;-87
2021/06/25 06:41:17;;;;;;;11.30;8.53;;;18.10;3.40;;;;;;5114358;28;20417;-80
2021/06/25 06:43:43;;;;;;;11.90;8.03;;;18.40;1.00;;;;;;5113233;28;20448;-89
2021/06/25 06:46:12;;;;;;;10.50;7.90;;;18.60;1.00;;;;;;5114025;28;20440;-79
2021/06/25 06:48:39;;;;;;;11.10;8.47;;;18.60;1.00;;;;;;5114095;28;20424;-79
2021/06/25 06:51:06;;;;;;;10.00;7.30;;;18.80;1.00;;;;;;5113972;28;20422;-80
2021/06/25 06:53:32;;;;;;;10.53;8.07;;;18.50;1.00;;;;;;5113722;28;20504;-80
2021/06/25 06:55:59;;;;;;;9.20;7.77;;;18.50;1.00;;;;;;5113589;28;20455;-81
2021/06/25 06:58:25;;;;;;;9.17;7.40;;;19.10;1.00;;;;;;5113765;28;20503;-80
2021/06/25 07:00:50;;;;;;;8.73;6.80;;;19.70;1.00;;;;;;5111999;28;21170;-80
2021/06/25 07:03:16;;;;;;;8.40;7.53;;;20.20;1.00;;;;;;5113848;28;20442;-80
2021/06/25 07:05:41;;;;;;;7.37;5.57;;;20.60;99.90;;;;;;5113688;27;20166;-79
2021/06/25 07:08:07;;;;;;;5.57;4.97;;;20.70;99.90;;;;;;5113079;28;20537;-81
2021/06/25 07:10:33;;;;;;;8.47;5.83;;;20.80;1.00;;;;;;5113475;28;20185;-80
2021/06/25 07:12:58;;;;;;;7.03;5.13;;;20.20;99.90;;;;;;5113285;28;20219;-79
2021/06/25 07:15:24;;;;;;;11.83;6.27;;;19.80;99.90;;;;;;5113371;28;20190;-80
2021/06/25 07:17:49;;;;;;;9.63;5.10;;;20.70;1.00;;;;;;5113238;28;20172;-80
2021/06/25 07:20:15;;;;;;;8.37;4.90;;;22.60;1.00;;;;;;5113494;28;20168;-80
2021/06/25 07:22:41;;;;;;;7.33;4.23;;;23.90;1.00;;;;;;5113475;28;20199;-80
2021/06/25 07:25:07;;;;;;;6.50;4.40;;;24.80;1.00;;;;;;5113386;28;20175;-81
2021/06/25 07:27:34;;;;;;;5.50;3.13;;;24.70;99.90;;;;;;5113429;28;20167;-84
2021/06/25 07:29:59;;;;;;;4.07;2.80;;;24.40;99.90;;;;;;5113413;28;20816;-84
2021/06/25 07:32:27;;;;;;;4.07;3.60;;;24.60;99.90;;;;;;5112065;28;20486;-80
2021/06/25 07:34:53;;;;;;;4.80;3.90;;;24.60;99.90;;;;;;5112380;28;20249;-81
2021/06/25 07:37:19;;;;;;;7.63;4.43;;;24.30;99.90;;;;;;5112315;28;20913;-81
2021/06/25 07:39:44;;;;;;;4.50;3.37;;;23.30;99.90;;;;;;5113545;28;20258;-81
2021/06/25 07:42:10;;;;;;;4.80;2.63;;;24.10;99.90;;;;;;5113495;28;20459;-80
2021/06/25 07:44:35;;;;;;;5.97;3.00;;;23.90;99.90;;;;;;5115478;28;20259;-81
2021/06/25 07:47:01;;;;;;;4.77;2.87;;;23.50;99.90;;;;;;5117138;28;20183;-81
2021/06/25 07:49:27;;;;;;;3.50;2.33;;;22.00;1.00;;;;;;5116337;28;20294;-80
2021/06/25 07:51:52;;;;;;;2.50;1.93;;;22.20;44.60;;;;;;5117518;28;20276;-81
2021/06/25 07:54:18;;;;;;;1.97;1.77;;;22.30;1.00;;;;;;5117648;28;20570;-81
2021/06/25 07:56:44;;;;;;;3.70;2.37;;;21.90;1.00;;;;;;5117785;28;20195;-80
2021/06/25 07:59:09;;;;;;;4.70;2.60;;;21.80;99.90;;;;;;5117507;28;20179;-80
2021/06/25 08:01:35;;;;;;;5.73;2.07;;;22.80;1.00;;;;;;5117009;28;20183;-81
2021/06/25 08:04:01;;;;;;;4.67;3.57;;;23.30;1.00;;;;;;5117285;28;20172;-81
2021/06/25 08:06:28;;;;;;;4.33;3.20;;;24.00;1.00;;;;;;5116114;28;20195;-80
2021/06/25 08:08:54;;;;;;;3.53;2.17;;;24.50;99.90;;;;;;5117142;28;20175;-80
2021/06/25 08:11:19;;;;;;;3.43;2.00;;;23.80;99.90;;;;;;5116402;27;20423;-83
2021/06/25 08:13:45;;;;;;;3.77;2.57;;;22.80;1.00;;;;;;5115367;28;21000;-83
2021/06/25 08:16:10;;;;;;;4.80;2.90;;;23.60;1.00;;;;;;5116370;27;20203;-81
2021/06/25 08:18:36;;;;;;;6.83;2.60;;;24.10;99.90;;;;;;5116313;28;20240;-80
2021/06/25 08:21:02;;;;;;;2.50;2.10;;;24.60;99.90;;;;;;5116790;28;20168;-80
2021/06/25 08:23:27;;;;;;;3.93;1.90;;;24.80;99.90;;;;;;5115137;28;20178;-81
2021/06/25 08:25:53;;;;;;;2.97;2.40;;;25.20;99.90;;;;;;5116476;28;20204;-80
2021/06/25 08:28:19;;;;;;;3.37;2.30;;;25.90;99.90;;;;;;5116632;28;20179;-80
2021/06/25 08:30:44;;;;;;;4.17;2.60;;;25.60;99.90;;;;;;5117477;28;20618;-80
2021/06/25 08:33:10;;;;;;;2.53;2.27;;;26.00;99.90;;;;;;5120105;28;20219;-81
2021/06/25 08:35:36;;;;;;;2.77;2.17;;;26.40;99.90;;;;;;5116592;28;20514;-80
2021/06/25 08:38:01;;;;;;;2.37;2.17;;;27.00;99.90;;;;;;5116522;28;20465;-80
2021/06/25 08:40:27;;;;;;;3.70;2.70;;;24.50;99.90;;;;;;5116450;28;20620;-80
2021/06/25 08:42:53;;;;;;;3.87;1.87;;;23.00;99.90;;;;;;5116429;28;20182;-81
2021/06/25 08:45:19;;;;;;;3.07;2.10;;;21.90;99.90;;;;;;5116946;28;20175;-81
2021/06/25 08:47:48;;;;;;;4.50;2.60;;;21.40;99.90;;;;;;5114190;27;20317;-80
2021/06/25 08:50:22;;;;;;;3.60;2.53;;;24.10;1.00;;;;;;5116226;28;20195;-80
2021/06/25 08:52:51;;;;;;;4.70;1.90;;;24.00;99.90;;;;;;5116040;28;20456;-81
2021/06/25 08:55:19;;;;;;;1.60;1.50;;;23.90;99.90;;;;;;5115314;28;20454;-81
2021/06/25 08:57:45;;;;;;;2.87;2.30;;;24.60;99.90;;;;;;5116348;28;20393;-80
2021/06/25 09:00:13;;;;;;;4.67;2.20;;;24.90;99.90;;;;;;5116077;28;20411;-88
2021/06/25 09:02:40;;;;;;;4.47;3.20;;;26.00;99.90;;;;;;5115917;28;20398;-79
2021/06/25 09:05:08;;;;;;;3.47;1.60;;;27.10;99.90;;;;;;5116086;28;20454;-79
2021/06/25 09:07:42;;;;;;;5.27;3.47;;;25.10;99.90;;;;;;5115978;28;20409;-79
2021/06/25 09:10:12;;;;;;;2.70;1.53;;;22.90;99.90;;;;;;5116085;28;20426;-79
2021/06/25 09:12:38;;;;;;;4.07;2.30;;;22.30;99.90;;;;;;5114315;28;20564;-80
2021/06/25 09:15:08;;;;;;;3.40;1.70;;;24.60;1.00;;;;;;5115877;28;20840;-79
2021/06/25 09:17:51;;;;;;;2.73;1.60;;;26.00;99.90;;;;;;5114814;27;20418;-84
2021/06/25 09:20:30;;;;;;;3.10;2.10;;;25.10;99.90;;;;;;5114874;27;20504;-83
2021/06/25 09:22:56;;;;;;;5.50;1.83;;;22.60;99.90;;;;;;5115729;28;20408;-78
2021/06/25 09:25:21;;;;;;;3.90;1.50;;;24.40;1.00;;;;;;5114284;28;20422;-78
2021/06/25 09:27:54;;;;;;;1.80;1.40;;;23.00;1.00;;;;;;5117132;28;20176;-78
2021/06/25 09:30:20;;;;;;;2.93;1.87;;;22.20;1.00;;;;;;5115372;28;20258;-78
2021/06/25 09:32:48;;;;;;;3.13;2.30;;;22.20;1.00;;;;;;5115270;28;20603;-80
2021/06/25 09:35:21;;;;;;;2.50;2.03;;;21.80;99.90;;;;;;5115506;28;20415;-82
2021/06/25 09:37:48;;;;;;;2.10;1.80;;;21.70;99.90;;;;;;5115405;28;20409;-79
2021/06/25 09:40:17;;;;;;;3.07;1.97;;;21.80;99.90;;;;;;5115241;28;20402;-80
2021/06/25 09:42:44;;;;;;;4.40;3.53;;;21.80;1.00;;;;;;5114299;28;20422;-83
2021/06/25 09:45:15;;;;;;;4.60;2.97;;;21.50;99.90;;;;;;5113803;28;20425;-78
2021/06/25 09:47:52;;;;;;;4.13;2.40;;;21.20;1.00;;;;;;5114638;27;20461;-79
2021/06/25 09:50:20;;;;;;;3.40;2.27;;;20.80;1.00;;;;;;5113866;28;20439;-79
2021/06/25 09:52:58;;;;;;;3.27;2.97;;;20.80;99.90;;;;;;5114996;28;20803;-79
2021/06/25 09:55:27;;;;;;;2.90;2.30;;;21.20;1.00;;;;;;5115011;28;20415;-79
2021/06/25 10:01:22;;;;;;;4.57;2.50;;;21.70;1.00;;;;;;5112811;28;20970;-78
2021/06/25 10:03:59;;;;;;;3.73;3.00;;;21.80;1.00;;;;;;5114835;28;20919;-78
2021/06/25 10:06:26;;;;;;;4.40;4.00;;;21.30;1.00;;;;;;5114581;28;20415;-80
2021/06/25 10:08:53;;;;;;;2.73;2.47;;;21.00;1.00;;;;;;5114805;28;20417;-82
2021/06/25 10:11:21;;;;;;;4.60;3.57;;;22.00;99.90;;;;;;5113680;28;20816;-80
2021/06/25 10:13:48;;;;;;;2.60;2.40;;;22.70;99.90;;;;;;5113260;28;21057;-78
2021/06/25 10:16:15;;;;;;;3.23;2.93;;;22.30;1.00;;;;;;5113460;28;20413;-79
2021/06/25 10:18:43;;;;;;;3.97;3.57;;;22.60;99.90;;;;;;5112443;28;20444;-79
2021/06/25 10:21:12;;;;;;;2.93;2.73;;;24.70;1.00;;;;;;5114533;28;20438;-79
2021/06/25 10:23:40;;;;;;;4.63;2.80;;;26.10;99.90;;;;;;5114468;28;20410;-79
2021/06/25 10:26:11;;;;;;;5.30;3.23;;;26.10;99.90;;;;;;5113070;28;20474;-80
2021/06/25 10:28:39;;;;;;;4.37;2.50;;;26.30;99.90;;;;;;5114262;28;20516;-79
2021/06/25 10:31:06;;;;;;;4.40;2.93;;;26.40;99.90;;;;;;5113742;28;20429;-79
2021/06/25 10:33:33;;;;;;;4.30;2.63;;;26.00;99.90;;;;;;5114163;28;20472;-79
2021/06/25 10:36:02;;;;;;;6.10;2.63;;;26.00;99.90;;;;;;5114305;28;20416;-79
2021/06/25 10:38:28;;;;;;;3.20;2.77;;;26.70;99.90;;;;;;5114220;28;20534;-79
2021/06/25 10:40:56;;;;;;;2.97;2.60;;;27.10;99.90;;;;;;5114203;28;20898;-81
2021/06/25 10:43:54;;;;;;;3.20;2.50;;;25.30;99.90;;;;;;5113324;28;20818;-80
2021/06/25 10:46:32;;;;;;;3.73;3.23;;;24.00;99.90;;;;;;5113143;28;20413;-78
2021/06/25 10:49:01;;;;;;;5.47;4.17;;;23.40;1.00;;;;;;5113858;28;20462;-79
2021/06/25 10:51:35;;;;;;;3.90;3.50;;;22.90;1.00;;;;;;5113899;28;20775;-79
2021/06/25 10:54:10;;;;;;;2.90;2.70;;;24.80;99.90;;;;;;5113743;28;20461;-79
2021/06/25 10:56:42;;;;;;;4.10;2.97;;;25.10;99.90;;;;;;5114607;28;20755;-78
2021/06/25 10:59:27;;;;;;;3.33;2.87;;;25.10;99.90;;;;;;5114072;28;20401;-81
2021/06/25 11:01:56;;;;;;;3.03;2.80;;;25.00;99.90;;;;;;5113028;28;20406;-79
2021/06/25 11:04:49;;;;;;;4.63;3.20;;;24.00;99.90;;;;;;5113745;28;20765;-79
2021/06/25 11:07:17;;;;;;;2.80;2.37;;;25.40;1.00;;;;;;5111208;28;20425;-87
2021/06/25 11:09:53;;;;;;;3.40;2.57;;;26.60;99.90;;;;;;5113730;28;20424;-79
2021/06/25 11:12:23;;;;;;;3.23;2.50;;;27.10;99.90;;;;;;5113301;28;20459;-79
2021/06/25 11:14:51;;;;;;;1.63;1.53;;;26.60;94.10;;;;;;5113748;28;20429;-79
2021/06/25 11:17:52;;;;;;;3.30;2.30;;;27.40;99.90;;;;;;5113236;28;20410;-79
2021/06/25 11:20:22;;;;;;;3.43;3.10;;;26.70;95.00;;;;;;5113671;28;20413;-78
2021/06/25 11:23:06;;;;;;;4.27;2.70;;;26.10;99.90;;;;;;5113715;28;20414;-79
2021/06/25 11:25:43;;;;;;;4.33;3.00;;;27.20;99.60;;;;;;5113638;28;20910;-79
2021/06/25 11:28:26;;;;;;;3.80;3.30;;;27.80;90.70;;;;;;5091943;28;20790;-79
2021/06/25 11:30:56;;;;;;;2.77;2.57;;;26.60;34.50;;;;;;5091761;28;20414;-79
2021/06/25 11:33:38;;;;;;;3.10;2.57;;;26.40;43.50;;;;;;5090160;28;20470;-79
2021/06/25 11:36:27;;;;;;;3.97;3.67;;;26.30;58.00;;;;;;5091976;28;20418;-79
2021/06/25 11:38:59;;;;;;;3.50;3.03;;;26.70;37.90;;;;;;5093222;28;20415;-79
2021/06/25 11:41:36;;;;;;;3.20;2.90;;;27.50;73.20;;;;;;5091927;28;20941;-79
2021/06/25 11:44:10;;;;;;;3.13;2.87;;;27.50;55.10;;;;;;5093211;28;20418;-79
2021/06/25 11:46:36;;;;;;;4.30;2.67;;;27.60;51.40;;;;;;5110163;28;20491;-79
2021/06/25 11:49:04;;;;;;;3.73;3.43;;;27.50;56.00;;;;;;5132743;28;20507;-79
2021/06/25 11:51:39;;;;;;;4.47;3.97;;;27.20;36.70;;;;;;5133942;27;20177;-79
2021/06/25 11:54:07;;;;;;;3.13;2.93;;;27.70;40.20;;;;;;5133952;27;20489;-79
2021/06/25 11:56:33;;;;;;;3.87;3.57;;;28.00;38.00;;;;;;5132648;28;20416;-79
2021/06/25 11:59:07;;;;;;;4.50;3.07;;;28.00;32.10;;;;;;5133871;27;20412;-79
2021/06/25 12:01:46;;;;;;;3.40;3.10;;;28.20;46.90;;;;;;5132359;28;20533;-79
2021/06/25 12:04:12;;;;;;;3.73;3.40;;;27.10;29.20;;;;;;5133977;27;20408;-79
2021/06/25 12:06:51;;;;;;;3.23;2.93;;;25.90;76.60;;;;;;5133816;27;20774;-79
2021/06/25 12:09:17;;;;;;;5.37;3.30;;;26.40;93.10;;;;;;5133867;27;20171;-79
2021/06/25 12:11:43;;;;;;;3.30;3.00;;;27.70;94.60;;;;;;5132318;28;20503;-79
2021/06/25 12:14:10;;;;;;;3.90;3.60;;;27.80;49.50;;;;;;5133632;27;20207;-79
2021/06/25 12:16:39;;;;;;;3.80;3.47;;;27.60;47.20;;;;;;5133296;27;20538;-79
2021/06/25 12:19:09;;;;;;;3.77;3.57;;;27.90;47.20;;;;;;5133730;27;20820;-79
2021/06/25 12:21:35;;;;;;;4.60;4.20;;;27.90;51.40;;;;;;5133789;27;20401;-79
2021/06/25 12:24:01;;;;;;;4.27;3.97;;;28.00;75.60;;;;;;5133866;27;20835;-79
2021/06/25 12:26:28;;;;;;;4.07;3.77;;;27.40;39.70;;;;;;5133668;27;20525;-79
2021/06/25 12:28:58;;;;;;;3.83;3.43;;;27.60;70.30;;;;;;5133885;27;20179;-79
2021/06/25 12:31:37;;;;;;;3.90;3.60;;;27.90;53.40;;;;;;5137281;27;20396;-79
2021/06/25 12:34:13;;;;;;;5.77;4.83;;;26.50;37.60;;;;;;5137270;27;20511;-79
2021/06/25 12:36:39;;;;;;;4.67;3.50;;;27.00;22.50;;;;;;5137307;27;20915;-79
2021/06/25 12:39:07;;;;;;;4.43;4.03;;;25.80;46.10;;;;;;5137166;27;20507;-79
2021/06/25 12:41:41;;;;;;;4.87;4.47;;;25.00;68.10;;;;;;5137561;27;20167;-79
2021/06/25 12:44:06;;;;;;;6.40;3.73;;;25.70;99.90;;;;;;5137251;27;20412;-79
2021/06/25 12:46:32;;;;;;;5.30;4.83;;;26.70;99.90;;;;;;5135465;27;20781;-79
2021/06/25 12:48:59;;;;;;;4.87;4.47;;;27.00;56.70;;;;;;5137126;27;20171;-79
2021/06/25 12:51:26;;;;;;;3.83;3.53;;;27.10;52.70;;;;;;5137098;27;20198;-82
2021/06/25 12:53:59;;;;;;;4.37;4.00;;;27.30;79.50;;;;;;5135671;27;20475;-80
2021/06/25 12:56:35;;;;;;;4.80;4.40;;;27.60;51.60;;;;;;5135712;27;20412;-79
2021/06/25 12:59:07;;;;;;;3.73;3.43;;;27.60;39.90;;;;;;5135570;27;20424;-79
2021/06/25 13:01:44;;;;;;;3.80;3.50;;;27.50;36.20;;;;;;5136506;27;20407;-78